Bristol, Colorado
Current Conditions -  °F | °C
As of 10:15 PM on Sunday 19 Oct 2014 (Local Time) from K3K3 Reporting Station
Clear Clear  
Wind Chill: 50°   Ceiling: Unl
Heat Index: 50°   Visibility: 10mi
Dew Point: 46°   Wind: 6mph
Humidity: 87%   Direction: 360°N
Pressure: 30.07"   Gusts: NA
Location:  37.8253°N, 102.163°W
Report Text: K3K3 200415Z AUTO 36005KT 10SM CLR 10/08 A3007 RMK AO2
Loading
Personal Weather Stations






























Interactive Weather Map
Tropical Storm Tracking
New forecast layout! Learn more

10-Day Weather Forecast

Advertisements
Track Severe Weather on mobile